Time;durP1;ratioP1;P1;durP2;ratioP2;P2;SDS_P1;SDS_P2;PMS_P1;PMS_P2;Temp;Humidity;BMP_temperature;BMP_pressure;BME280_temperature;BME280_humidity;BME280_pressure;Samples;Min_cycle;Max_cycle;Signal;HPM_P1;HPM_P2
2022/12/04 00:02:22;;;;;;;;;;;19.00;41.20;;;;;;5110463;27;19965;-62
2022/12/04 00:04:49;;;;;;;;;;;18.90;41.10;;;;;;5092456;28;20227;-62
2022/12/04 00:07:17;;;;;;;;;;;18.90;41.10;;;;;;5075903;28;19920;-62
2022/12/04 00:09:44;;;;;;;;;;;18.90;41.10;;;;;;5081723;28;19934;-62
2022/12/04 00:12:11;;;;;;;;;;;18.90;41.10;;;;;;5106390;28;20369;-63
2022/12/04 00:14:38;;;;;;;;;;;18.90;41.10;;;;;;5086194;28;19980;-64
2022/12/04 00:17:04;;;;;;;;;;;18.90;41.10;;;;;;5084271;28;20368;-63
2022/12/04 00:19:31;;;;;;;;;;;18.90;41.70;;;;;;5088163;28;19920;-62
2022/12/04 00:21:58;;;;;;;;;;;18.90;41.10;;;;;;5092654;28;19984;-62
2022/12/04 00:24:26;;;;;;;;;;;18.90;41.10;;;;;;5082092;28;19926;-64
2022/12/04 00:26:53;;;;;;;;;;;18.90;41.70;;;;;;5108151;28;19941;-63
2022/12/04 00:29:20;;;;;;;;;;;18.90;41.00;;;;;;5105298;28;19927;-62
2022/12/04 00:31:47;;;;;;;;;;;18.90;41.00;;;;;;5091325;28;20136;-64
2022/12/04 00:34:14;;;;;;;;;;;18.90;41.00;;;;;;5091599;28;19972;-62
2022/12/04 00:36:40;;;;;;;;;;;18.90;41.00;;;;;;5110681;28;19919;-62
2022/12/04 00:39:07;;;;;;;;;;;18.90;41.00;;;;;;5088912;28;20218;-62
2022/12/04 00:41:35;;;;;;;;;;;18.90;41.00;;;;;;5088095;28;19988;-62
2022/12/04 00:44:02;;;;;;;;;;;18.90;41.60;;;;;;5089635;28;19972;-62
2022/12/04 00:46:29;;;;;;;;;;;18.90;41.00;;;;;;5089608;28;19927;-62
2022/12/04 00:48:57;;;;;;;;;;;18.90;41.00;;;;;;5090588;28;20265;-61
2022/12/04 00:51:24;;;;;;;;;;;18.90;40.90;;;;;;5089989;28;19923;-64
2022/12/04 00:53:51;;;;;;;;;;;18.90;40.90;;;;;;5088563;28;19927;-61
2022/12/04 00:56:18;;;;;;;;;;;18.90;40.90;;;;;;5109897;28;19924;-62
2022/12/04 00:58:47;;;;;;;;;;;18.90;40.90;;;;;;5089648;28;19927;-63
2022/12/04 01:01:14;;;;;;;;;;;18.90;40.90;;;;;;5089486;28;20318;-63
2022/12/04 01:03:41;;;;;;;;;;;18.90;40.90;;;;;;5090647;28;19985;-63
2022/12/04 01:06:07;;;;;;;;;;;18.90;40.90;;;;;;5087429;28;19923;-62
2022/12/04 01:08:34;;;;;;;;;;;18.80;40.80;;;;;;5087570;28;19919;-62
2022/12/04 01:11:04;;;;;;;;;;;18.80;40.80;;;;;;5109971;28;19920;-62
2022/12/04 01:13:31;;;;;;;;;;;18.80;40.80;;;;;;5090480;28;19919;-62
2022/12/04 01:15:59;;;;;;;;;;;18.80;40.80;;;;;;5089414;28;19923;-63
2022/12/04 01:18:26;;;;;;;;;;;18.80;40.80;;;;;;5088459;28;19927;-63
2022/12/04 01:20:53;;;;;;;;;;;18.80;40.70;;;;;;5101638;28;19927;-64
2022/12/04 01:23:20;;;;;;;;;;;18.80;40.70;;;;;;5088414;28;19932;-61
2022/12/04 01:25:50;;;;;;;;;;;18.80;40.70;;;;;;5108439;28;19919;-61
2022/12/04 01:28:17;;;;;;;;;;;18.80;41.40;;;;;;5083845;28;19989;-61
2022/12/04 01:30:43;;;;;;;;;;;18.80;40.80;;;;;;5091498;28;19931;-61
2022/12/04 01:33:11;;;;;;;;;;;18.80;40.70;;;;;;5092323;28;20366;-62
2022/12/04 01:35:38;;;;;;;;;;;18.80;40.70;;;;;;5095387;28;20057;-61
2022/12/04 01:38:05;;;;;;;;;;;18.80;40.70;;;;;;5091741;28;19936;-63
2022/12/04 01:40:32;;;;;;;;;;;18.80;40.70;;;;;;5095181;28;19931;-62
2022/12/04 01:42:59;;;;;;;;;;;18.80;40.70;;;;;;5095539;28;19924;-62
2022/12/04 01:45:39;;;;;;;;;;;18.80;40.70;;;;;;5091394;28;19924;-62
2022/12/04 01:48:08;;;;;;;;;;;18.80;40.70;;;;;;5091744;28;19921;-66
2022/12/04 01:50:36;;;;;;;;;;;18.80;40.70;;;;;;5093775;28;19919;-61
2022/12/04 01:53:03;;;;;;;;;;;18.80;40.70;;;;;;5093965;28;19923;-61
2022/12/04 01:55:30;;;;;;;;;;;18.80;40.70;;;;;;5093860;28;20358;-62
2022/12/04 01:57:57;;;;;;;;;;;18.80;40.70;;;;;;5111866;28;19927;-63
2022/12/04 02:00:24;;;;;;;;;;;18.80;40.70;;;;;;5094725;28;19923;-62
2022/12/04 02:02:51;;;;;;;;;;;18.80;40.70;;;;;;5095134;28;19924;-63
2022/12/04 02:05:18;;;;;;;;;;;18.80;40.60;;;;;;5092206;28;19925;-63
2022/12/04 02:07:47;;;;;;;;;;;18.80;40.60;;;;;;5110020;28;20044;-62
2022/12/04 02:10:15;;;;;;;;;;;18.80;40.60;;;;;;5094524;28;20412;-61
2022/12/04 02:12:43;;;;;;;;;;;18.80;40.60;;;;;;5112955;28;19919;-62
2022/12/04 02:15:11;;;;;;;;;;;18.80;40.60;;;;;;5094618;28;20151;-63
2022/12/04 02:17:39;;;;;;;;;;;18.80;40.60;;;;;;5092957;28;19981;-62
2022/12/04 02:20:15;;;;;;;;;;;18.80;40.50;;;;;;5091661;28;19927;-62
2022/12/04 02:22:51;;;;;;;;;;;18.80;40.60;;;;;;5091635;28;19924;-63
2022/12/04 02:25:20;;;;;;;;;;;18.80;40.60;;;;;;5091115;28;20000;-62
2022/12/04 02:27:55;;;;;;;;;;;18.80;40.60;;;;;;5089027;28;19924;-64
2022/12/04 02:30:22;;;;;;;;;;;18.80;40.50;;;;;;5107930;28;19927;-64
2022/12/04 02:32:50;;;;;;;;;;;18.80;40.50;;;;;;5094186;28;19935;-65
2022/12/04 02:35:19;;;;;;;;;;;18.80;40.50;;;;;;5112386;28;19995;-62
2022/12/04 02:37:46;;;;;;;;;;;18.80;40.50;;;;;;5091999;28;19969;-61
2022/12/04 02:40:14;;;;;;;;;;;18.80;40.50;;;;;;5086595;28;19920;-63
2022/12/04 02:42:42;;;;;;;;;;;18.80;40.50;;;;;;5090653;28;19927;-61
2022/12/04 02:45:11;;;;;;;;;;;18.80;40.50;;;;;;5111443;28;19932;-61
2022/12/04 02:47:38;;;;;;;;;;;18.80;40.50;;;;;;5093811;28;19923;-62
2022/12/04 02:50:06;;;;;;;;;;;18.80;40.50;;;;;;5111528;28;19927;-62
2022/12/04 02:52:33;;;;;;;;;;;18.80;40.50;;;;;;5090845;28;19920;-62
2022/12/04 02:55:01;;;;;;;;;;;18.80;40.50;;;;;;5090473;28;19920;-62
2022/12/04 02:57:29;;;;;;;;;;;18.80;40.40;;;;;;5093976;28;20400;-62
2022/12/04 02:59:56;;;;;;;;;;;18.80;40.40;;;;;;5088627;28;19965;-62
2022/12/04 03:02:25;;;;;;;;;;;18.80;40.40;;;;;;5093586;28;19920;-61
2022/12/04 03:04:53;;;;;;;;;;;18.70;40.40;;;;;;5092951;28;19920;-62
2022/12/04 03:07:23;;;;;;;;;;;18.80;40.40;;;;;;5110907;28;19959;-61
2022/12/04 03:09:51;;;;;;;;;;;18.80;40.40;;;;;;5110655;28;19920;-62
2022/12/04 03:12:18;;;;;;;;;;;18.70;40.40;;;;;;5091703;28;19931;-63
2022/12/04 03:14:46;;;;;;;;;;;18.70;40.40;;;;;;5110093;28;19977;-63
2022/12/04 03:17:14;;;;;;;;;;;18.70;40.30;;;;;;5093509;28;19919;-62
2022/12/04 03:19:43;;;;;;;;;;;18.70;40.40;;;;;;5090384;28;19920;-61
2022/12/04 03:22:11;;;;;;;;;;;18.70;40.30;;;;;;5092281;28;20019;-63
2022/12/04 03:24:37;;;;;;;;;;;18.70;40.30;;;;;;5092948;28;20252;-61
2022/12/04 03:27:05;;;;;;;;;;;18.70;40.30;;;;;;5088155;28;19972;-61
2022/12/04 03:29:33;;;;;;;;;;;18.70;40.30;;;;;;5089301;28;19966;-63
2022/12/04 03:32:04;;;;;;;;;;;18.70;40.30;;;;;;5109435;28;19920;-64
2022/12/04 03:34:32;;;;;;;;;;;18.70;40.30;;;;;;5109060;28;19932;-61
2022/12/04 03:37:01;;;;;;;;;;;18.70;40.30;;;;;;5090581;28;19924;-61
2022/12/04 03:39:30;;;;;;;;;;;18.70;40.30;;;;;;5110124;28;20139;-63
2022/12/04 03:41:58;;;;;;;;;;;18.70;40.30;;;;;;5089424;28;19927;-61
2022/12/04 03:44:25;;;;;;;;;;;18.70;40.30;;;;;;5088324;28;19920;-62
2022/12/04 03:46:53;;;;;;;;;;;18.70;40.30;;;;;;5109580;28;19982;-62
2022/12/04 03:49:21;;;;;;;;;;;18.70;40.20;;;;;;5093143;28;19923;-62
2022/12/04 03:51:48;;;;;;;;;;;18.70;40.20;;;;;;5108484;28;19924;-62
2022/12/04 03:54:18;;;;;;;;;;;18.70;40.20;;;;;;5097746;28;20246;-60
2022/12/04 03:56:45;;;;;;;;;;;18.70;40.20;;;;;;5090451;28;19924;-62
2022/12/04 03:59:14;;;;;;;;;;;18.70;40.30;;;;;;5103904;28;20285;-64
2022/12/04 04:01:42;;;;;;;;;;;18.70;40.20;;;;;;5090037;28;19919;-62
2022/12/04 04:04:11;;;;;;;;;;;18.70;40.20;;;;;;5093271;28;19934;-62
2022/12/04 04:06:39;;;;;;;;;;;18.70;40.20;;;;;;5088480;27;19932;-62
2022/12/04 04:09:07;;;;;;;;;;;18.70;40.20;;;;;;5109233;27;20238;-61
2022/12/04 04:11:36;;;;;;;;;;;18.70;40.20;;;;;;5087715;28;19936;-61
2022/12/04 04:25:03;;;;;;;;;;;18.70;40.20;;;;;;5090021;28;19923;-63
2022/12/04 04:27:31;;;;;;;;;;;18.70;40.10;;;;;;5090859;28;19923;-61
2022/12/04 04:29:58;;;;;;;;;;;18.70;40.10;;;;;;5089045;28;19924;-64
2022/12/04 04:32:26;;;;;;;;;;;18.70;40.10;;;;;;5091976;28;19927;-62
2022/12/04 04:34:54;;;;;;;;;;;18.70;40.10;;;;;;5089407;28;19919;-62
2022/12/04 04:37:25;;;;;;;;;;;18.70;40.10;;;;;;5087464;28;19928;-62
2022/12/04 04:39:57;;;;;;;;;;;18.70;40.10;;;;;;5088313;28;19920;-61
2022/12/04 04:42:26;;;;;;;;;;;18.70;40.10;;;;;;5073496;28;20471;-64
2022/12/04 04:44:56;;;;;;;;;;;18.70;40.10;;;;;;5091478;28;19919;-62
2022/12/04 04:47:25;;;;;;;;;;;18.70;40.10;;;;;;5099050;28;19920;-61
2022/12/04 04:49:52;;;;;;;;;;;18.70;40.10;;;;;;5089239;28;19935;-64
2022/12/04 04:52:19;;;;;;;;;;;18.70;40.10;;;;;;5109094;28;19937;-63
2022/12/04 04:54:46;;;;;;;;;;;18.70;40.10;;;;;;5090418;28;19942;-62
2022/12/04 04:57:13;;;;;;;;;;;18.70;40.10;;;;;;5089007;28;19953;-65
2022/12/04 04:59:39;;;;;;;;;;;18.70;40.10;;;;;;5088322;28;19924;-63
2022/12/04 05:02:08;;;;;;;;;;;18.70;40.00;;;;;;5087479;28;19962;-63
2022/12/04 05:04:35;;;;;;;;;;;18.70;40.00;;;;;;5091463;28;19965;-61
2022/12/04 05:07:02;;;;;;;;;;;18.70;40.10;;;;;;5087824;28;19927;-61
2022/12/04 05:09:29;;;;;;;;;;;18.70;40.00;;;;;;5085021;28;19926;-64
2022/12/04 05:11:55;;;;;;;;;;;18.70;40.00;;;;;;5090208;28;19919;-62
2022/12/04 05:14:22;;;;;;;;;;;18.70;40.00;;;;;;5091364;28;19926;-63
2022/12/04 05:16:49;;;;;;;;;;;18.70;40.00;;;;;;5089080;28;19932;-64
2022/12/04 05:22:01;;;;;;;;;;;18.70;40.00;;;;;;5084990;28;20012;-63
2022/12/04 05:24:28;;;;;;;;;;;18.70;40.00;;;;;;5091177;28;19926;-63
2022/12/04 05:26:55;;;;;;;;;;;18.70;40.00;;;;;;5089705;28;19997;-63
2022/12/04 05:29:21;;;;;;;;;;;18.70;40.60;;;;;;5086774;28;19920;-63
2022/12/04 05:31:48;;;;;;;;;;;18.70;40.00;;;;;;5090383;28;19919;-62
2022/12/04 05:34:16;;;;;;;;;;;18.70;40.00;;;;;;5087506;28;19931;-62
2022/12/04 05:36:43;;;;;;;;;;;18.70;40.00;;;;;;5091602;28;19924;-63
2022/12/04 05:39:10;;;;;;;;;;;18.70;40.00;;;;;;5086375;28;19927;-62
2022/12/04 05:41:37;;;;;;;;;;;18.70;40.00;;;;;;5089014;28;19919;-62
2022/12/04 05:44:03;;;;;;;;;;;18.70;40.00;;;;;;5089474;28;20033;-62
2022/12/04 05:46:30;;;;;;;;;;;18.60;39.90;;;;;;5087846;28;20132;-62
2022/12/04 05:48:57;;;;;;;;;;;18.70;40.00;;;;;;5088893;28;20385;-62
2022/12/04 05:51:25;;;;;;;;;;;18.70;40.00;;;;;;5091321;28;19927;-63
2022/12/04 05:53:52;;;;;;;;;;;18.70;40.00;;;;;;5090864;28;19920;-64
2022/12/04 05:56:19;;;;;;;;;;;18.70;40.00;;;;;;5086758;28;19924;-62
2022/12/04 05:58:46;;;;;;;;;;;18.60;39.90;;;;;;5089109;28;19932;-63
2022/12/04 06:01:13;;;;;;;;;;;18.60;39.80;;;;;;5090812;28;20255;-62
2022/12/04 06:03:40;;;;;;;;;;;18.70;39.90;;;;;;5088764;28;19924;-62
2022/12/04 06:06:11;;;;;;;;;;;18.70;39.90;;;;;;5089370;28;19931;-62
2022/12/04 06:08:39;;;;;;;;;;;18.60;39.80;;;;;;5088539;28;19943;-62
2022/12/04 06:11:10;;;;;;;;;;;18.60;39.80;;;;;;5091057;28;19926;-62
2022/12/04 06:13:37;;;;;;;;;;;18.60;39.80;;;;;;5085825;28;19935;-63
2022/12/04 06:16:03;;;;;;;;;;;18.60;39.80;;;;;;5086805;28;19931;-62
2022/12/04 06:18:30;;;;;;;;;;;18.60;39.80;;;;;;5092980;28;19920;-64
2022/12/04 06:20:59;;;;;;;;;;;18.70;39.90;;;;;;5092093;28;19920;-61
2022/12/04 06:23:26;;;;;;;;;;;18.60;39.90;;;;;;5094321;28;19923;-62
2022/12/04 06:25:54;;;;;;;;;;;18.60;39.80;;;;;;5093058;28;20357;-65
2022/12/04 06:28:21;;;;;;;;;;;18.70;39.90;;;;;;5091490;28;19919;-65
2022/12/04 06:30:47;;;;;;;;;;;18.60;39.80;;;;;;5090190;28;19981;-63
2022/12/04 06:33:14;;;;;;;;;;;18.60;39.80;;;;;;5090586;28;19981;-62
2022/12/04 06:35:41;;;;;;;;;;;18.60;39.80;;;;;;5092914;28;19973;-65
2022/12/04 06:38:13;;;;;;;;;;;18.60;39.80;;;;;;5092739;28;19924;-64
2022/12/04 06:40:39;;;;;;;;;;;18.60;39.80;;;;;;5089336;28;19955;-64
2022/12/04 06:43:07;;;;;;;;;;;18.60;39.80;;;;;;5093054;28;19920;-62
2022/12/04 06:45:34;;;;;;;;;;;18.60;39.80;;;;;;5092107;28;19931;-62
2022/12/04 06:48:03;;;;;;;;;;;18.60;39.80;;;;;;5094298;28;19953;-62
2022/12/04 06:50:31;;;;;;;;;;;18.60;39.80;;;;;;5108107;28;20297;-61
2022/12/04 06:52:58;;;;;;;;;;;18.70;39.90;;;;;;5092911;28;19920;-62
2022/12/04 06:55:25;;;;;;;;;;;18.60;39.80;;;;;;5110577;28;19999;-63
2022/12/04 06:57:52;;;;;;;;;;;18.60;39.80;;;;;;5093892;28;19931;-65
2022/12/04 07:00:21;;;;;;;;;;;18.60;39.80;;;;;;5107261;28;19973;-64
2022/12/04 07:02:47;;;;;;;;;;;18.60;39.80;;;;;;5093833;28;19920;-62
2022/12/04 07:05:14;;;;;;;;;;;18.70;39.90;;;;;;5109841;28;19924;-61
2022/12/04 07:07:41;;;;;;;;;;;18.60;39.80;;;;;;5106381;28;19924;-62
2022/12/04 07:10:08;;;;;;;;;;;18.60;39.80;;;;;;5110917;28;19965;-62
2022/12/04 07:12:35;;;;;;;;;;;18.60;39.80;;;;;;5092374;28;19931;-62
2022/12/04 07:15:02;;;;;;;;;;;18.60;39.70;;;;;;5091332;28;19924;-66
2022/12/04 07:17:30;;;;;;;;;;;18.60;39.70;;;;;;5093455;28;20373;-61
2022/12/04 07:19:57;;;;;;;;;;;18.60;39.70;;;;;;5089959;28;19920;-62
2022/12/04 07:22:24;;;;;;;;;;;18.60;39.70;;;;;;5092347;28;19919;-61
2022/12/04 07:24:50;;;;;;;;;;;18.60;39.70;;;;;;5109812;28;19927;-63
2022/12/04 07:27:17;;;;;;;;;;;18.60;39.70;;;;;;5091436;28;19919;-62
2022/12/04 07:29:44;;;;;;;;;;;18.60;39.70;;;;;;5091284;28;19920;-62
2022/12/04 07:32:11;;;;;;;;;;;18.60;39.70;;;;;;5092301;28;19927;-64
2022/12/04 07:34:39;;;;;;;;;;;18.60;39.70;;;;;;5092864;28;20002;-63
2022/12/04 07:37:06;;;;;;;;;;;18.60;39.70;;;;;;5093513;28;19927;-62
2022/12/04 07:39:33;;;;;;;;;;;18.60;39.70;;;;;;5108961;28;19930;-63
2022/12/04 07:42:00;;;;;;;;;;;18.60;39.70;;;;;;5109065;28;19964;-63
2022/12/04 07:44:26;;;;;;;;;;;18.60;39.70;;;;;;5093271;28;19923;-62
2022/12/04 07:46:53;;;;;;;;;;;18.60;39.70;;;;;;5094396;28;19995;-62
2022/12/04 07:49:20;;;;;;;;;;;18.60;39.70;;;;;;5090127;28;20381;-63
2022/12/04 07:51:48;;;;;;;;;;;18.60;39.70;;;;;;5107810;28;19981;-64
2022/12/04 07:54:15;;;;;;;;;;;18.60;39.70;;;;;;5110619;28;19924;-61
2022/12/04 07:56:42;;;;;;;;;;;18.60;39.70;;;;;;5089423;28;19919;-62
2022/12/04 07:59:08;;;;;;;;;;;18.60;39.70;;;;;;5087543;28;19926;-63
2022/12/04 08:01:35;;;;;;;;;;;18.60;39.70;;;;;;5092545;28;19939;-63
2022/12/04 08:04:03;;;;;;;;;;;18.60;39.60;;;;;;5110763;28;19923;-63
2022/12/04 08:06:30;;;;;;;;;;;18.60;39.70;;;;;;5108769;28;19930;-61
2022/12/04 08:09:01;;;;;;;;;;;18.60;39.60;;;;;;5089153;28;19932;-62
2022/12/04 08:11:28;;;;;;;;;;;18.60;39.60;;;;;;5092453;28;19924;-61
2022/12/04 08:13:55;;;;;;;;;;;18.60;39.60;;;;;;5108628;28;19935;-65
2022/12/04 08:16:21;;;;;;;;;;;18.60;39.60;;;;;;5108026;28;19926;-62
2022/12/04 08:18:48;;;;;;;;;;;18.60;39.60;;;;;;5087102;28;19920;-61
2022/12/04 08:21:15;;;;;;;;;;;18.60;39.70;;;;;;5090295;28;19924;-62
2022/12/04 08:23:42;;;;;;;;;;;18.60;39.70;;;;;;5088281;28;19939;-61
2022/12/04 08:26:11;;;;;;;;;;;18.60;39.70;;;;;;5088427;28;19924;-61
2022/12/04 08:28:38;;;;;;;;;;;18.60;39.60;;;;;;5087411;28;19920;-62
2022/12/04 08:31:05;;;;;;;;;;;18.60;39.70;;;;;;5088496;28;19920;-64
2022/12/04 08:33:32;;;;;;;;;;;18.60;39.70;;;;;;5089818;28;19920;-62
2022/12/04 08:35:59;;;;;;;;;;;18.60;39.60;;;;;;5109849;28;19972;-62
2022/12/04 08:38:25;;;;;;;;;;;18.60;39.60;;;;;;5083832;28;19920;-63
2022/12/04 08:40:52;;;;;;;;;;;18.60;39.60;;;;;;5090843;28;20014;-62
2022/12/04 08:43:20;;;;;;;;;;;18.60;39.60;;;;;;5090487;28;19920;-62
2022/12/04 08:45:54;;;;;;;;;;;18.60;39.60;;;;;;5088078;28;19920;-62
2022/12/04 08:48:21;;;;;;;;;;;18.60;39.60;;;;;;5089716;28;19936;-61
2022/12/04 08:50:47;;;;;;;;;;;18.60;39.60;;;;;;5089205;28;19919;-62
2022/12/04 08:53:14;;;;;;;;;;;18.60;39.60;;;;;;5089776;28;19965;-62
2022/12/04 08:55:41;;;;;;;;;;;18.60;39.60;;;;;;5086021;28;19964;-63
2022/12/04 08:58:08;;;;;;;;;;;18.60;39.60;;;;;;5087919;28;20353;-63
2022/12/04 09:00:36;;;;;;;;;;;18.60;39.60;;;;;;5088764;28;19927;-64
2022/12/04 09:03:03;;;;;;;;;;;18.60;39.60;;;;;;5089129;28;19924;-63
2022/12/04 09:05:30;;;;;;;;;;;18.60;39.60;;;;;;5090772;28;19985;-63
2022/12/04 09:07:56;;;;;;;;;;;18.60;39.60;;;;;;5086117;28;19939;-62
2022/12/04 09:10:23;;;;;;;;;;;18.60;39.60;;;;;;5072390;28;19981;-63
2022/12/04 09:12:50;;;;;;;;;;;18.60;39.60;;;;;;5090736;28;19942;-61
2022/12/04 09:15:17;;;;;;;;;;;18.60;39.60;;;;;;5091942;28;19924;-62
2022/12/04 09:17:45;;;;;;;;;;;18.60;39.60;;;;;;5108918;27;19919;-63
2022/12/04 09:20:13;;;;;;;;;;;18.60;39.60;;;;;;5090393;28;19934;-62
2022/12/04 09:22:40;;;;;;;;;;;18.60;39.60;;;;;;5089156;28;19920;-63
2022/12/04 09:25:07;;;;;;;;;;;18.60;39.60;;;;;;5090647;28;19923;-62
2022/12/04 09:27:35;;;;;;;;;;;18.60;39.60;;;;;;5091658;28;19920;-61
2022/12/04 09:30:02;;;;;;;;;;;18.60;39.60;;;;;;5089520;28;19920;-62
2022/12/04 09:32:29;;;;;;;;;;;18.60;39.60;;;;;;5110168;28;19920;-61
2022/12/04 09:34:57;;;;;;;;;;;18.60;39.60;;;;;;5091022;28;19928;-62
2022/12/04 09:37:23;;;;;;;;;;;18.60;39.60;;;;;;5089662;28;20291;-60
2022/12/04 09:39:50;;;;;;;;;;;18.60;39.60;;;;;;5089831;28;19920;-61
2022/12/04 09:42:23;;;;;;;;;;;18.60;39.60;;;;;;5091063;28;19924;-61
2022/12/04 09:44:51;;;;;;;;;;;18.60;39.60;;;;;;5091372;28;20453;-62
2022/12/04 09:47:19;;;;;;;;;;;18.60;39.60;;;;;;5090296;28;19982;-62
2022/12/04 09:49:47;;;;;;;;;;;18.60;39.60;;;;;;5090540;28;19930;-63
2022/12/04 09:52:23;;;;;;;;;;;18.60;39.60;;;;;;5092728;28;19931;-62
2022/12/04 09:54:50;;;;;;;;;;;18.60;39.60;;;;;;5095952;28;20361;-64
2022/12/04 09:57:20;;;;;;;;;;;18.60;39.60;;;;;;5095514;28;20404;-63
2022/12/04 09:59:50;;;;;;;;;;;18.60;39.60;;;;;;5093463;28;19924;-62
2022/12/04 10:02:22;;;;;;;;;;;18.60;39.60;;;;;;5096225;28;19927;-62
2022/12/04 10:04:49;;;;;;;;;;;18.60;39.60;;;;;;5087980;28;19920;-61
2022/12/04 10:07:18;;;;;;;;;;;18.60;39.60;;;;;;5095203;28;19920;-62
2022/12/04 10:09:45;;;;;;;;;;;18.60;39.60;;;;;;5093685;28;19969;-63
2022/12/04 10:12:15;;;;;;;;;;;18.60;39.60;;;;;;5094948;28;19920;-62
2022/12/04 10:14:45;;;;;;;;;;;18.60;39.60;;;;;;5094734;28;19972;-62
2022/12/04 10:17:15;;;;;;;;;;;18.60;39.60;;;;;;5093056;27;19923;-61
2022/12/04 10:19:43;;;;;;;;;;;18.60;40.30;;;;;;5093556;28;19949;-62
2022/12/04 10:22:11;;;;;;;;;;;18.60;39.70;;;;;;5094451;28;19920;-61
2022/12/04 10:24:41;;;;;;;;;;;18.60;39.70;;;;;;5095048;28;20276;-63
2022/12/04 10:27:18;;;;;;;;;;;18.60;39.70;;;;;;5108407;28;19920;-63
2022/12/04 10:29:46;;;;;;;;;;;18.60;39.80;;;;;;5111789;28;19919;-60
2022/12/04 10:32:15;;;;;;;;;;;18.60;39.70;;;;;;5112125;28;19919;-62
2022/12/04 10:34:42;;;;;;;;;;;18.60;39.80;;;;;;5088642;28;19936;-62
2022/12/04 10:37:10;;;;;;;;;;;18.60;39.70;;;;;;5093150;28;20400;-63
2022/12/04 10:39:37;;;;;;;;;;;18.60;39.80;;;;;;5113079;28;19924;-61
2022/12/04 10:42:10;;;;;;;;;;;18.60;39.80;;;;;;5095355;28;20343;-63
2022/12/04 10:44:37;;;;;;;;;;;18.70;39.60;;;;;;5083065;28;19969;-62
2022/12/04 10:47:04;;;;;;;;;;;18.60;39.20;;;;;;5091887;28;19992;-62
2022/12/04 10:49:32;;;;;;;;;;;18.60;39.10;;;;;;5084381;28;19938;-63
2022/12/04 10:51:59;;;;;;;;;;;18.60;39.10;;;;;;5098673;28;19939;-62
2022/12/04 10:54:27;;;;;;;;;;;18.60;39.10;;;;;;5090108;28;19931;-62
2022/12/04 10:56:54;;;;;;;;;;;18.60;39.10;;;;;;5109294;28;19920;-63
2022/12/04 10:59:22;;;;;;;;;;;18.60;39.20;;;;;;5091711;28;19923;-63
2022/12/04 11:01:49;;;;;;;;;;;18.60;39.30;;;;;;5091072;28;19941;-65
2022/12/04 11:04:20;;;;;;;;;;;18.60;39.30;;;;;;5089484;28;19920;-65
2022/12/04 11:06:48;;;;;;;;;;;18.60;39.40;;;;;;5091172;28;19928;-64
2022/12/04 11:09:18;;;;;;;;;;;18.70;39.50;;;;;;5090710;28;19998;-64
2022/12/04 11:11:45;;;;;;;;;;;18.70;39.60;;;;;;5092400;28;19924;-66
2022/12/04 11:14:13;;;;;;;;;;;18.70;39.60;;;;;;5111991;28;19919;-63
2022/12/04 11:16:43;;;;;;;;;;;18.70;39.60;;;;;;5089372;28;19924;-63
2022/12/04 11:19:20;;;;;;;;;;;18.70;39.60;;;;;;5087766;28;19924;-66
2022/12/04 11:21:47;;;;;;;;;;;18.70;39.60;;;;;;5108829;28;19935;-65
2022/12/04 11:24:17;;;;;;;;;;;18.70;39.60;;;;;;5092336;28;19923;-64
2022/12/04 11:26:43;;;;;;;;;;;18.70;39.70;;;;;;5091784;28;19950;-64
2022/12/04 11:29:11;;;;;;;;;;;18.70;39.70;;;;;;5093067;28;19927;-64
2022/12/04 11:31:37;;;;;;;;;;;18.70;40.30;;;;;;5093691;28;19977;-64
2022/12/04 11:34:06;;;;;;;;;;;18.70;39.70;;;;;;5093729;28;20285;-63
2022/12/04 11:36:34;;;;;;;;;;;18.70;39.80;;;;;;5093573;28;19920;-64
2022/12/04 11:39:04;;;;;;;;;;;18.70;39.80;;;;;;5091754;28;19920;-63
2022/12/04 11:41:32;;;;;;;;;;;18.70;39.80;;;;;;5094225;28;19920;-63
2022/12/04 11:43:59;;;;;;;;;;;18.70;39.80;;;;;;5093663;28;19920;-64
2022/12/04 11:46:26;;;;;;;;;;;18.80;39.90;;;;;;5106903;28;19926;-64
2022/12/04 11:48:53;;;;;;;;;;;18.80;39.90;;;;;;5091988;28;19921;-63
2022/12/04 11:51:24;;;;;;;;;;;18.80;39.90;;;;;;5090332;28;19920;-65
2022/12/04 11:53:53;;;;;;;;;;;18.80;39.90;;;;;;5093629;28;19973;-65
2022/12/04 11:56:21;;;;;;;;;;;18.80;39.90;;;;;;5094031;28;20361;-63
2022/12/04 11:58:55;;;;;;;;;;;18.80;39.90;;;;;;5108309;28;19980;-63
2022/12/04 12:01:25;;;;;;;;;;;18.80;40.00;;;;;;5093204;28;19949;-62
2022/12/04 12:03:56;;;;;;;;;;;18.80;40.00;;;;;;5093740;28;19931;-65
2022/12/04 12:06:28;;;;;;;;;;;18.80;40.00;;;;;;5091207;28;19931;-63
2022/12/04 12:09:01;;;;;;;;;;;18.90;40.10;;;;;;5091278;28;19931;-64
2022/12/04 12:11:30;;;;;;;;;;;18.90;40.10;;;;;;5090726;28;19920;-65
2022/12/04 12:13:58;;;;;;;;;;;18.90;40.10;;;;;;5092568;28;19957;-62
2022/12/04 12:16:27;;;;;;;;;;;18.90;40.10;;;;;;5093931;28;19919;-64
2022/12/04 12:18:59;;;;;;;;;;;18.90;40.10;;;;;;5088421;28;20401;-66
2022/12/04 12:21:27;;;;;;;;;;;18.90;40.10;;;;;;5105740;28;19920;-65
2022/12/04 12:24:03;;;;;;;;;;;18.90;40.10;;;;;;5088818;28;19927;-65
2022/12/04 12:26:31;;;;;;;;;;;18.90;40.10;;;;;;5090987;28;19924;-62
2022/12/04 12:29:03;;;;;;;;;;;19.00;40.20;;;;;;5087970;28;19926;-65
2022/12/04 12:31:36;;;;;;;;;;;19.00;40.20;;;;;;5091639;28;19923;-62
2022/12/04 12:34:03;;;;;;;;;;;19.00;40.20;;;;;;5089336;28;19924;-65
2022/12/04 12:36:33;;;;;;;;;;;19.00;40.30;;;;;;5092962;28;19919;-64
2022/12/04 12:39:01;;;;;;;;;;;19.00;40.20;;;;;;5090700;28;19923;-63
2022/12/04 12:41:29;;;;;;;;;;;19.00;40.20;;;;;;5092116;28;19950;-64
2022/12/04 12:43:58;;;;;;;;;;;19.00;40.30;;;;;;5080711;28;20431;-66
2022/12/04 12:46:28;;;;;;;;;;;19.00;40.30;;;;;;5089359;28;19919;-64
2022/12/04 12:48:57;;;;;;;;;;;19.00;40.30;;;;;;5110332;28;19926;-64
2022/12/04 12:51:27;;;;;;;;;;;19.00;40.30;;;;;;5089906;28;19924;-64
2022/12/04 12:53:55;;;;;;;;;;;19.00;40.30;;;;;;5092227;28;19920;-65
2022/12/04 12:56:23;;;;;;;;;;;19.00;40.30;;;;;;5091269;28;19923;-64
2022/12/04 12:58:51;;;;;;;;;;;19.10;40.40;;;;;;5088172;28;19924;-65
2022/12/04 13:01:19;;;;;;;;;;;19.10;40.40;;;;;;5105686;28;19928;-67
2022/12/04 13:03:49;;;;;;;;;;;19.10;40.40;;;;;;5091647;28;19970;-65
2022/12/04 13:06:17;;;;;;;;;;;19.10;40.40;;;;;;5091766;28;19931;-62
2022/12/04 13:08:44;;;;;;;;;;;19.10;40.40;;;;;;5091931;28;19977;-62
2022/12/04 13:11:13;;;;;;;;;;;19.10;40.40;;;;;;5108611;28;19932;-64
2022/12/04 13:13:41;;;;;;;;;;;19.10;40.40;;;;;;5090261;28;19931;-62
2022/12/04 13:16:09;;;;;;;;;;;19.10;40.40;;;;;;5091737;28;20093;-63
2022/12/04 13:18:37;;;;;;;;;;;19.10;40.40;;;;;;5090343;28;19939;-65
2022/12/04 13:21:05;;;;;;;;;;;19.10;40.40;;;;;;5089223;28;19965;-62
2022/12/04 13:23:38;;;;;;;;;;;19.10;40.40;;;;;;5091339;28;19933;-60
2022/12/04 13:26:06;;;;;;;;;;;19.10;40.40;;;;;;5090093;28;19973;-62
2022/12/04 13:28:36;;;;;;;;;;;19.10;40.40;;;;;;5088669;28;19977;-62
2022/12/04 13:31:06;;;;;;;;;;;19.10;40.40;;;;;;5089573;28;19926;-63
2022/12/04 13:33:51;;;;;;;;;;;19.10;40.50;;;;;;5091125;28;20316;-62
2022/12/04 13:36:24;;;;;;;;;;;19.10;40.40;;;;;;5091934;28;19923;-63
2022/12/04 13:38:55;;;;;;;;;;;19.10;40.40;;;;;;5090842;28;19920;-63
2022/12/04 13:41:23;;;;;;;;;;;19.10;40.50;;;;;;5092234;28;19927;-64
2022/12/04 13:43:51;;;;;;;;;;;19.10;40.40;;;;;;5090338;28;20361;-63
2022/12/04 13:46:26;;;;;;;;;;;19.10;40.40;;;;;;5089006;28;19981;-62
2022/12/04 13:48:53;;;;;;;;;;;19.10;40.50;;;;;;5084998;28;19919;-65
2022/12/04 13:51:23;;;;;;;;;;;19.10;40.50;;;;;;5090815;28;19965;-63
2022/12/04 13:54:00;;;;;;;;;;;19.20;40.60;;;;;;5088779;28;19927;-65
2022/12/04 13:56:27;;;;;;;;;;;19.20;40.60;;;;;;5089543;28;20366;-61
2022/12/04 13:59:00;;;;;;;;;;;19.20;40.60;;;;;;5088843;28;19919;-62
2022/12/04 14:01:29;;;;;;;;;;;19.20;40.60;;;;;;5090319;28;20386;-63
2022/12/04 14:03:58;;;;;;;;;;;19.20;40.60;;;;;;5091916;28;19926;-64
2022/12/04 14:06:25;;;;;;;;;;;19.20;40.60;;;;;;5084477;28;19989;-63
2022/12/04 14:08:54;;;;;;;;;;;19.20;40.60;;;;;;5088758;28;19920;-65
2022/12/04 14:11:22;;;;;;;;;;;19.20;40.60;;;;;;5087895;28;19965;-63
2022/12/04 14:13:49;;;;;;;;;;;19.20;40.60;;;;;;5086645;28;20295;-64
2022/12/04 14:16:19;;;;;;;;;;;19.20;40.60;;;;;;5078311;28;19919;-62
2022/12/04 14:18:47;;;;;;;;;;;19.20;40.60;;;;;;5080801;28;19926;-64
2022/12/04 14:21:13;;;;;;;;;;;19.20;40.60;;;;;;5107299;28;19919;-64
2022/12/04 14:23:40;;;;;;;;;;;19.20;40.60;;;;;;5078560;28;19934;-64
2022/12/04 14:26:19;;;;;;;;;;;19.20;40.60;;;;;;5089698;28;19926;-65
2022/12/04 14:28:45;;;;;;;;;;;19.20;40.60;;;;;;5089115;28;20378;-62
2022/12/04 14:31:13;;;;;;;;;;;19.20;40.60;;;;;;5083413;28;20339;-62
2022/12/04 14:33:44;;;;;;;;;;;19.20;40.60;;;;;;5091173;28;19985;-63
2022/12/04 14:36:11;;;;;;;;;;;19.20;40.60;;;;;;5088423;28;20322;-62